Time;durP1;ratioP1;P1;durP2;ratioP2;P2;SDS_P1;SDS_P2;PMS_P1;PMS_P2;Temp;Humidity;BMP_temperature;BMP_pressure;BME280_temperature;BME280_humidity;BME280_pressure;Samples;Min_cycle;Max_cycle;Signal;HPM_P1;HPM_P2
2022/10/04 00:01:14;;;;;;;1.60;1.10;;;20.80;51.20;;;;;;5054859;28;20187;-67
2022/10/04 00:03:49;;;;;;;1.87;1.00;;;21.00;48.20;;;;;;5054873;28;20206;-67
2022/10/04 00:06:23;;;;;;;3.83;1.10;;;21.00;48.70;;;;;;5055007;28;20183;-67
2022/10/04 00:08:56;;;;;;;2.10;1.30;;;20.80;49.60;;;;;;5054602;28;20673;-67
2022/10/04 00:11:32;;;;;;;4.47;1.20;;;20.90;49.10;;;;;;5054358;28;20739;-67
2022/10/04 00:14:05;;;;;;;1.33;0.90;;;21.30;48.60;;;;;;5054929;28;20178;-68
2022/10/04 00:16:38;;;;;;;2.30;1.00;;;21.10;47.90;;;;;;5054210;28;20206;-67
2022/10/04 00:19:14;;;;;;;5.10;1.13;;;21.00;49.10;;;;;;5054896;28;20176;-67
2022/10/04 00:21:57;;;;;;;2.10;1.23;;;21.30;49.10;;;;;;5054550;28;20172;-66
2022/10/04 00:24:27;;;;;;;2.40;0.90;;;21.40;49.70;;;;;;5051652;28;22061;-67
2022/10/04 00:27:30;;;;;;;4.10;1.30;;;21.60;49.40;;;;;;5054130;28;20704;-68
2022/10/04 00:30:03;;;;;;;2.10;1.07;;;21.60;51.00;;;;;;5030239;28;20176;-68
2022/10/04 00:32:44;;;;;;;3.30;1.40;;;21.80;49.70;;;;;;5049460;28;20297;-68
2022/10/04 00:35:27;;;;;;;1.73;1.30;;;21.90;50.40;;;;;;5051572;28;20660;-68
2022/10/04 00:38:07;;;;;;;10.90;1.33;;;22.20;49.70;;;;;;5053582;28;20610;-67
2022/10/04 00:40:45;;;;;;;42.87;4.80;;;22.10;50.00;;;;;;5034641;28;20185;-71
2022/10/04 00:43:27;;;;;;;2.87;1.20;;;22.20;50.10;;;;;;5052962;28;20682;-71
2022/10/04 00:46:27;;;;;;;5.00;1.30;;;22.30;48.70;;;;;;5047887;28;20204;-68
2022/10/04 00:49:05;;;;;;;2.80;1.10;;;22.60;48.80;;;;;;5049653;28;20535;-67
2022/10/04 00:51:51;;;;;;;3.50;1.10;;;22.80;47.90;;;;;;5052676;28;20235;-66
2022/10/04 00:54:23;;;;;;;7.93;1.70;;;22.60;48.10;;;;;;5053677;28;20160;-68
2022/10/04 00:57:06;;;;;;;1.77;1.07;;;22.70;47.70;;;;;;5051716;28;20175;-67
2022/10/04 01:00:11;;;;;;;4.93;1.70;;;22.50;48.30;;;;;;5052840;28;20172;-69
2022/10/04 01:03:01;;;;;;;3.97;1.50;;;22.80;49.70;;;;;;5035047;28;20189;-67
2022/10/04 01:05:40;;;;;;;4.07;1.20;;;23.10;49.60;;;;;;5046091;28;20179;-68
2022/10/04 01:08:14;;;;;;;4.20;1.80;;;22.80;48.80;;;;;;5038801;28;20267;-69
2022/10/04 01:10:47;;;;;;;8.07;2.80;;;22.80;50.20;;;;;;5044744;28;20667;-67
2022/10/04 01:13:43;;;;;;;7.70;2.20;;;23.00;50.80;;;;;;5053742;28;20176;-70
2022/10/04 01:16:22;;;;;;;6.33;2.00;;;22.80;51.10;;;;;;5039324;28;20593;-68
2022/10/04 01:18:49;;;;;;;7.67;1.70;;;23.20;50.40;;;;;;5047120;28;20199;-71
2022/10/04 01:21:19;;;;;;;7.33;1.60;;;23.10;50.00;;;;;;5050661;28;20181;-67
2022/10/04 01:23:48;;;;;;;5.03;1.90;;;22.80;51.80;;;;;;5033699;28;20187;-68
2022/10/04 01:26:33;;;;;;;6.40;1.83;;;22.80;51.30;;;;;;5037260;28;20206;-68
2022/10/04 01:29:06;;;;;;;5.73;1.93;;;22.80;50.80;;;;;;5053377;28;20176;-67
2022/10/04 01:31:35;;;;;;;5.53;1.80;;;22.90;51.10;;;;;;5047208;28;20220;-68
2022/10/04 01:34:04;;;;;;;9.70;2.07;;;23.10;50.50;;;;;;5052301;28;20513;-67
2022/10/04 01:36:33;;;;;;;5.80;1.83;;;23.30;51.10;;;;;;5051213;28;20187;-68
2022/10/04 01:39:01;;;;;;;5.97;1.93;;;23.70;49.40;;;;;;5053289;28;20180;-67
2022/10/04 01:41:39;;;;;;;8.53;2.00;;;23.80;49.40;;;;;;5052620;28;20175;-68
2022/10/04 01:44:11;;;;;;;12.03;2.23;;;24.10;48.10;;;;;;5052440;28;20180;-70
2022/10/04 01:46:40;;;;;;;11.17;2.20;;;24.10;47.50;;;;;;5052586;28;20184;-69
2022/10/04 01:49:16;;;;;;;7.77;1.90;;;24.00;47.10;;;;;;5052515;28;20187;-65
2022/10/04 01:51:56;;;;;;;3.93;1.80;;;24.10;47.30;;;;;;5052704;28;20276;-66
2022/10/04 01:54:50;;;;;;;6.97;2.10;;;24.10;47.10;;;;;;5052288;28;20220;-67
2022/10/04 01:57:21;;;;;;;4.23;1.90;;;24.40;46.70;;;;;;5051101;28;20168;-65
2022/10/04 02:00:07;;;;;;;5.30;1.80;;;24.70;46.10;;;;;;5050877;28;20178;-66
2022/10/04 02:02:46;;;;;;;5.67;1.47;;;24.40;46.70;;;;;;5052165;28;20172;-68
2022/10/04 02:05:19;;;;;;;5.57;1.80;;;23.90;47.20;;;;;;5052889;28;20172;-68
2022/10/04 02:07:48;;;;;;;7.63;1.87;;;23.70;47.90;;;;;;5041744;28;20195;-70
2022/10/04 02:10:21;;;;;;;6.43;1.90;;;23.80;48.40;;;;;;5055310;28;20177;-68
2022/10/04 02:12:53;;;;;;;4.80;1.80;;;24.10;47.90;;;;;;5044161;28;20219;-70
2022/10/04 02:15:25;;;;;;;6.40;3.93;;;24.20;46.30;;;;;;5050763;28;20184;-67
2022/10/04 02:17:55;;;;;;;6.40;2.83;;;24.90;46.40;;;;;;5052341;28;20172;-71
2022/10/04 02:20:25;;;;;;;4.77;1.80;;;25.00;44.70;;;;;;5051619;28;20180;-68
2022/10/04 02:23:02;;;;;;;8.87;1.63;;;24.70;44.60;;;;;;5035589;28;20267;-70
2022/10/04 02:25:30;;;;;;;4.67;1.33;;;24.30;44.90;;;;;;5033342;28;20180;-71
2022/10/04 02:27:57;;;;;;;4.67;1.70;;;23.90;46.00;;;;;;5052324;28;20188;-68
2022/10/04 02:30:25;;;;;;;5.97;1.50;;;24.10;45.80;;;;;;5047413;28;20253;-70
2022/10/04 02:32:59;;;;;;;4.87;1.50;;;23.80;46.50;;;;;;5036458;28;20263;-68
2022/10/04 02:35:44;;;;;;;2.43;1.30;;;24.00;45.70;;;;;;5051360;28;20172;-71
2022/10/04 02:38:23;;;;;;;3.43;1.50;;;24.20;46.60;;;;;;5051387;28;20184;-69
2022/10/04 02:41:20;;;;;;;4.30;1.63;;;23.80;46.20;;;;;;5051516;28;20167;-71
2022/10/04 02:43:54;;;;;;;4.20;1.77;;;24.00;46.60;;;;;;5049098;28;20222;-69
2022/10/04 02:46:33;;;;;;;3.80;1.60;;;23.80;46.10;;;;;;5045290;28;20524;-69
2022/10/04 02:49:26;;;;;;;6.20;1.70;;;23.50;46.70;;;;;;5047470;28;20688;-69
2022/10/04 02:52:02;;;;;;;5.27;1.43;;;23.80;46.80;;;;;;5050120;28;20219;-69
2022/10/04 02:54:42;;;;;;;5.43;1.70;;;24.30;45.50;;;;;;5052007;28;20206;-68
2022/10/04 02:57:21;;;;;;;3.23;1.60;;;25.00;43.90;;;;;;5050837;28;20191;-71
2022/10/04 02:59:49;;;;;;;3.40;1.53;;;25.30;42.80;;;;;;5038851;28;20177;-70
2022/10/04 03:02:27;;;;;;;4.60;1.63;;;25.50;42.10;;;;;;5049683;28;20180;-69
2022/10/04 03:05:04;;;;;;;3.07;1.37;;;25.60;41.30;;;;;;5044508;28;20180;-67
2022/10/04 03:07:34;;;;;;;8.40;1.60;;;25.50;41.40;;;;;;5047935;28;20164;-68
2022/10/04 03:10:07;;;;;;;7.67;2.10;;;25.60;41.50;;;;;;5051735;28;20172;-69
2022/10/04 03:12:37;;;;;;;2.83;1.10;;;25.40;41.70;;;;;;5051515;28;20176;-69
2022/10/04 03:15:11;;;;;;;2.97;1.20;;;25.80;41.60;;;;;;5051487;28;20226;-71
2022/10/04 03:17:43;;;;;;;2.87;1.50;;;25.00;42.10;;;;;;5051521;28;20672;-70
2022/10/04 03:20:19;;;;;;;5.67;1.30;;;24.60;43.00;;;;;;5053684;28;20589;-72
2022/10/04 03:22:54;;;;;;;5.30;1.17;;;24.00;44.80;;;;;;5052104;28;20175;-69
2022/10/04 03:25:48;;;;;;;2.63;1.33;;;24.40;45.00;;;;;;5041583;28;20266;-71
2022/10/04 03:28:16;;;;;;;4.53;1.43;;;24.10;44.70;;;;;;5048515;28;20262;-67
2022/10/04 03:30:45;;;;;;;7.47;1.53;;;23.90;45.10;;;;;;5054659;28;20672;-69
2022/10/04 03:33:26;;;;;;;3.97;1.50;;;23.70;45.80;;;;;;5053145;28;20306;-66
2022/10/04 03:35:56;;;;;;;3.90;1.40;;;23.70;46.10;;;;;;5048683;28;20203;-66
2022/10/04 03:38:27;;;;;;;4.87;1.57;;;23.70;45.90;;;;;;5049296;28;20184;-68
2022/10/04 03:41:00;;;;;;;5.43;1.60;;;23.70;46.00;;;;;;5052710;28;20364;-69
2022/10/04 03:43:33;;;;;;;6.63;1.40;;;23.70;46.50;;;;;;5047159;28;20231;-67
2022/10/04 03:46:01;;;;;;;4.93;1.50;;;23.90;45.60;;;;;;5050290;28;20183;-67
2022/10/04 03:48:37;;;;;;;3.80;1.40;;;23.90;45.40;;;;;;5047280;28;20259;-67
2022/10/04 03:51:07;;;;;;;3.57;1.50;;;23.80;45.20;;;;;;5051170;28;20199;-66
2022/10/04 03:53:41;;;;;;;3.00;1.47;;;23.70;45.10;;;;;;5043818;28;20271;-66
2022/10/04 03:56:30;;;;;;;4.87;1.67;;;23.40;46.10;;;;;;5041449;27;20183;-66
2022/10/04 03:58:58;;;;;;;6.43;1.67;;;23.50;45.90;;;;;;5055757;28;20226;-66
2022/10/04 04:01:33;;;;;;;6.27;1.70;;;23.60;45.50;;;;;;5050808;28;20176;-66
2022/10/04 04:04:38;;;;;;;8.00;1.50;;;23.30;46.20;;;;;;5048299;28;20172;-66
2022/10/04 04:07:18;;;;;;;5.40;1.40;;;23.00;47.00;;;;;;5050531;28;20183;-67
2022/10/04 04:09:52;;;;;;;5.87;1.60;;;23.10;46.70;;;;;;5052717;28;20180;-66
2022/10/04 04:12:33;;;;;;;4.27;1.50;;;23.20;46.20;;;;;;5046326;28;20709;-66
2022/10/04 04:15:04;;;;;;;2.80;1.20;;;23.30;46.20;;;;;;5053630;28;20534;-65
2022/10/04 04:17:40;;;;;;;4.40;1.60;;;23.20;46.10;;;;;;5053814;28;20615;-66
2022/10/04 04:20:21;;;;;;;4.97;1.50;;;23.50;46.00;;;;;;5053961;28;20180;-65
2022/10/04 04:23:15;;;;;;;3.67;1.40;;;23.50;46.50;;;;;;5054428;28;20187;-66
2022/10/04 04:25:46;;;;;;;5.60;1.83;;;23.70;45.70;;;;;;5034138;28;20193;-67
2022/10/04 04:28:29;;;;;;;5.57;2.00;;;23.50;46.20;;;;;;5061298;28;20220;-65
2022/10/04 04:31:06;;;;;;;5.37;1.67;;;23.80;45.80;;;;;;5040502;28;20200;-67
2022/10/04 04:33:59;;;;;;;10.17;2.33;;;23.90;45.40;;;;;;5054629;28;20688;-66
2022/10/04 04:36:38;;;;;;;5.00;1.57;;;23.70;47.10;;;;;;5051192;28;20183;-68
2022/10/04 04:42:20;;;;;;;8.57;2.17;;;23.60;46.70;;;;;;5053782;28;20254;-66
2022/10/04 04:45:14;;;;;;;4.23;1.30;;;23.30;47.50;;;;;;5051407;28;20215;-67
2022/10/04 04:47:49;;;;;;;8.70;1.67;;;23.50;47.20;;;;;;5051984;28;20270;-68
2022/10/04 04:50:21;;;;;;;7.60;1.50;;;23.30;46.80;;;;;;5053377;28;20179;-68
2022/10/04 04:52:51;;;;;;;5.90;1.53;;;23.30;47.30;;;;;;5052932;28;20183;-68
2022/10/04 04:55:28;;;;;;;3.83;1.73;;;23.50;47.30;;;;;;5053929;28;20278;-68
2022/10/04 04:57:58;;;;;;;6.40;1.73;;;23.30;47.30;;;;;;5053877;28;20172;-69
2022/10/04 05:00:36;;;;;;;4.83;1.97;;;23.00;47.80;;;;;;5053717;28;20188;-68
2022/10/04 05:03:17;;;;;;;3.23;1.50;;;22.80;49.20;;;;;;5053867;28;20744;-67
2022/10/04 05:05:46;;;;;;;4.73;1.27;;;22.80;49.10;;;;;;5039405;28;20337;-67
2022/10/04 05:08:27;;;;;;;2.93;1.20;;;22.50;49.50;;;;;;5052499;28;20180;-67
2022/10/04 05:11:10;;;;;;;2.90;1.40;;;22.30;49.20;;;;;;5052925;28;20218;-68
2022/10/04 05:13:50;;;;;;;3.53;1.40;;;22.00;49.30;;;;;;5053610;28;20641;-68
2022/10/04 05:16:45;;;;;;;3.57;1.30;;;21.60;50.70;;;;;;5053328;28;20207;-67
2022/10/04 05:19:30;;;;;;;3.43;1.33;;;21.40;51.10;;;;;;5039463;28;20280;-66
2022/10/04 05:22:06;;;;;;;5.43;1.10;;;21.40;52.30;;;;;;5048424;28;20188;-67
2022/10/04 05:24:39;;;;;;;2.10;1.13;;;21.10;52.60;;;;;;5051885;28;20646;-67
2022/10/04 05:27:35;;;;;;;2.30;1.20;;;21.00;53.10;;;;;;5053392;28;20168;-67
2022/10/04 05:30:19;;;;;;;4.50;1.40;;;20.80;53.00;;;;;;5050131;28;20199;-66
2022/10/04 05:33:13;;;;;;;1.80;1.27;;;20.90;53.40;;;;;;5053116;28;20195;-68
2022/10/04 05:35:56;;;;;;;5.17;1.40;;;21.00;54.00;;;;;;5058211;28;20191;-67
2022/10/04 05:38:39;;;;;;;6.03;1.47;;;21.00;54.20;;;;;;5053656;28;20175;-67
2022/10/04 05:41:23;;;;;;;7.30;1.20;;;20.90;54.20;;;;;;5051998;28;20583;-66
2022/10/04 05:43:51;;;;;;;5.33;1.53;;;20.90;54.30;;;;;;5052355;28;20218;-67
2022/10/04 05:46:36;;;;;;;5.60;1.57;;;20.90;54.00;;;;;;5050311;28;20186;-67
2022/10/04 05:49:12;;;;;;;3.10;1.50;;;20.80;54.50;;;;;;5051644;28;20568;-67
2022/10/04 05:52:02;;;;;;;3.30;1.27;;;20.80;54.40;;;;;;5045850;28;20250;-66
2022/10/04 05:54:34;;;;;;;6.27;1.67;;;20.80;53.70;;;;;;5047479;28;20179;-66
2022/10/04 05:57:49;;;;;;;2.33;1.20;;;20.50;54.20;;;;;;5049332;28;20192;-66
2022/10/04 06:00:32;;;;;;;5.60;1.40;;;20.50;54.30;;;;;;5041630;28;20204;-66
2022/10/04 06:03:02;;;;;;;5.13;1.27;;;20.20;54.50;;;;;;5053053;28;20183;-66
2022/10/04 06:05:49;;;;;;;4.77;1.40;;;20.10;55.10;;;;;;5047623;28;20184;-66
2022/10/04 06:08:27;;;;;;;4.37;1.40;;;20.20;55.30;;;;;;5047218;28;20658;-66
2022/10/04 06:11:10;;;;;;;4.67;1.70;;;20.20;55.90;;;;;;5049900;28;20219;-67
2022/10/04 06:14:30;;;;;;;2.50;1.37;;;20.30;55.50;;;;;;5042110;28;20222;-65
2022/10/04 06:17:23;;;;;;;3.00;1.27;;;20.30;55.10;;;;;;5028266;28;20209;-70
2022/10/04 06:19:53;;;;;;;3.70;1.50;;;20.20;55.00;;;;;;5045325;28;20192;-68
2022/10/04 06:22:22;;;;;;;2.73;1.10;;;20.20;55.30;;;;;;5046282;28;20176;-66
2022/10/04 06:24:51;;;;;;;3.00;1.00;;;20.10;55.30;;;;;;5050006;28;20183;-66
2022/10/04 06:27:32;;;;;;;4.13;1.00;;;20.10;55.60;;;;;;5046553;28;20172;-67
2022/10/04 06:30:06;;;;;;;8.20;1.50;;;20.20;56.10;;;;;;5048287;28;20218;-66
2022/10/04 06:32:56;;;;;;;2.57;1.33;;;20.30;55.30;;;;;;5046117;28;20199;-66
2022/10/04 06:35:50;;;;;;;3.53;1.40;;;20.20;54.20;;;;;;5049481;28;20274;-66
2022/10/04 06:38:36;;;;;;;3.07;1.53;;;20.00;55.10;;;;;;5039433;28;20254;-67
2022/10/04 06:41:28;;;;;;;4.67;1.40;;;19.90;55.90;;;;;;5051259;28;20180;-67
2022/10/04 06:44:21;;;;;;;2.83;1.43;;;19.80;56.20;;;;;;5044996;28;20195;-67
2022/10/04 06:46:59;;;;;;;5.57;1.57;;;19.70;56.40;;;;;;5046367;28;20258;-66
2022/10/04 06:49:52;;;;;;;3.60;1.20;;;19.70;56.70;;;;;;5052345;28;20243;-67
2022/10/04 06:52:26;;;;;;;5.10;1.60;;;19.60;56.90;;;;;;5036016;28;20233;-69
2022/10/04 06:55:15;;;;;;;6.13;1.70;;;19.50;57.40;;;;;;5049936;28;20682;-67
2022/10/04 06:57:58;;;;;;;4.67;1.53;;;19.40;57.10;;;;;;5051447;28;20265;-68
2022/10/04 07:00:35;;;;;;;3.70;1.90;;;19.50;57.20;;;;;;5057787;28;20622;-67
2022/10/04 07:03:19;;;;;;;4.20;1.30;;;19.50;58.00;;;;;;5055055;28;20176;-69
2022/10/04 07:05:52;;;;;;;8.20;1.97;;;19.40;57.40;;;;;;5045411;28;20180;-68
2022/10/04 07:08:31;;;;;;;3.50;1.73;;;19.30;57.50;;;;;;5055962;28;20184;-67
2022/10/04 07:11:13;;;;;;;2.97;1.80;;;19.30;58.00;;;;;;5056067;28;20208;-67
2022/10/04 07:13:56;;;;;;;3.33;1.03;;;19.30;58.40;;;;;;5049692;28;20187;-68
2022/10/04 07:16:48;;;;;;;3.37;1.00;;;19.20;58.70;;;;;;5087939;28;20180;-68
2022/10/04 07:19:35;;;;;;;5.37;1.40;;;19.20;59.00;;;;;;5052871;28;20700;-67
2022/10/04 07:22:11;;;;;;;2.47;1.50;;;19.20;59.40;;;;;;5053703;28;20246;-66
2022/10/04 07:24:56;;;;;;;3.47;1.27;;;19.10;59.80;;;;;;5053831;28;20175;-67
2022/10/04 07:27:48;;;;;;;1.60;1.10;;;19.00;59.80;;;;;;5039964;28;20507;-68
2022/10/04 07:30:19;;;;;;;1.97;1.20;;;19.00;60.00;;;;;;5060881;28;20585;-67
2022/10/04 07:32:50;;;;;;;3.97;1.47;;;19.00;60.20;;;;;;5037633;28;20575;-66
2022/10/04 07:35:39;;;;;;;3.17;1.60;;;19.00;60.20;;;;;;5055057;28;20250;-68
2022/10/04 07:38:16;;;;;;;5.13;1.67;;;19.00;60.50;;;;;;5054670;28;20178;-66
2022/10/04 07:41:02;;;;;;;6.57;3.20;;;18.90;60.40;;;;;;5054519;28;20686;-67
2022/10/04 07:43:40;;;;;;;4.77;1.70;;;18.80;60.60;;;;;;5053980;28;20385;-67
2022/10/04 07:46:39;;;;;;;3.87;1.80;;;18.80;60.90;;;;;;5053908;28;20180;-67
2022/10/04 07:49:14;;;;;;;3.10;2.03;;;18.80;61.30;;;;;;5054486;28;20224;-67
2022/10/04 07:51:56;;;;;;;4.77;2.20;;;18.80;61.30;;;;;;5054558;28;20202;-67
2022/10/04 07:54:52;;;;;;;4.20;2.03;;;18.80;61.50;;;;;;5035202;28;20226;-66
2022/10/04 07:57:57;;;;;;;7.60;1.77;;;18.70;61.80;;;;;;5044160;28;20192;-66
2022/10/04 08:00:58;;;;;;;3.47;1.67;;;18.70;61.90;;;;;;5044941;28;20716;-68
2022/10/04 08:03:35;;;;;;;6.53;2.17;;;18.60;62.00;;;;;;5044210;28;20650;-66
2022/10/04 08:06:18;;;;;;;2.87;2.23;;;18.60;62.30;;;;;;5054200;28;20642;-66
2022/10/04 08:09:21;;;;;;;4.10;2.27;;;18.60;62.40;;;;;;5035305;28;20172;-66
2022/10/04 08:12:04;;;;;;;3.93;2.33;;;18.50;63.00;;;;;;5041272;28;20600;-67
2022/10/04 08:15:10;;;;;;;4.10;1.97;;;18.50;63.00;;;;;;5054429;28;20214;-66
2022/10/04 08:17:56;;;;;;;4.23;1.90;;;18.60;63.30;;;;;;5054839;28;20195;-66
2022/10/04 08:20:45;;;;;;;3.33;1.97;;;18.50;63.50;;;;;;5051768;28;20232;-66
2022/10/04 08:23:34;;;;;;;2.03;1.70;;;18.50;63.70;;;;;;5053402;28;20642;-65
2022/10/04 08:26:04;;;;;;;4.53;1.63;;;18.50;63.50;;;;;;5086880;28;20195;-65
2022/10/04 08:32:11;;;;;;;4.17;1.33;;;18.40;64.00;;;;;;5049729;28;20625;-65
2022/10/04 08:35:10;;;;;;;3.23;1.60;;;18.30;64.40;;;;;;5053222;28;20179;-65
2022/10/04 08:38:13;;;;;;;3.87;1.80;;;18.30;64.40;;;;;;5053099;28;20642;-65
2022/10/04 08:40:59;;;;;;;3.07;1.70;;;18.30;64.60;;;;;;5052302;28;20213;-66
2022/10/04 08:44:04;;;;;;;4.07;1.83;;;18.30;64.80;;;;;;5052347;28;20272;-66
2022/10/04 08:46:57;;;;;;;3.63;1.70;;;18.30;64.40;;;;;;5049278;28;20179;-66
2022/10/04 08:49:50;;;;;;;3.73;1.37;;;18.30;64.30;;;;;;5053737;28;20692;-66
2022/10/04 08:52:23;;;;;;;3.57;1.43;;;18.30;64.50;;;;;;5046855;28;20212;-66
2022/10/04 08:55:26;;;;;;;2.57;1.37;;;18.30;64.50;;;;;;5049636;28;20184;-66
2022/10/04 08:58:28;;;;;;;2.27;1.47;;;18.30;64.20;;;;;;5036284;28;20177;-66
2022/10/04 09:01:05;;;;;;;3.57;1.20;;;18.30;64.30;;;;;;5043476;28;20718;-66
2022/10/04 09:03:41;;;;;;;2.57;1.40;;;18.30;64.50;;;;;;5047533;28;20274;-65
2022/10/04 09:06:27;;;;;;;3.40;1.70;;;18.30;64.30;;;;;;5042100;28;20190;-65
2022/10/04 09:09:09;;;;;;;3.93;1.40;;;18.30;64.50;;;;;;5054064;28;20184;-67
2022/10/04 09:11:42;;;;;;;1.83;1.13;;;18.30;64.50;;;;;;5052326;28;20632;-66
2022/10/04 09:14:25;;;;;;;7.13;1.90;;;18.30;64.40;;;;;;5051251;28;20188;-67
2022/10/04 09:17:16;;;;;;;3.23;1.47;;;18.30;64.50;;;;;;5047375;28;20274;-65
2022/10/04 09:19:55;;;;;;;4.43;1.60;;;18.30;64.60;;;;;;5050229;28;20191;-65
2022/10/04 09:22:35;;;;;;;4.17;1.57;;;18.30;64.90;;;;;;5052941;28;20172;-66
2022/10/04 09:25:11;;;;;;;1.97;1.33;;;18.20;64.80;;;;;;5053858;28;20543;-67
2022/10/04 09:27:59;;;;;;;4.23;1.50;;;18.30;64.60;;;;;;5050151;28;20171;-66
2022/10/04 09:30:32;;;;;;;2.43;1.50;;;18.30;65.00;;;;;;5047503;28;20176;-65
2022/10/04 09:33:17;;;;;;;2.77;1.40;;;18.30;64.70;;;;;;5052794;28;20188;-65
2022/10/04 09:36:06;;;;;;;2.27;1.30;;;18.30;64.60;;;;;;5037991;28;20180;-67
2022/10/04 09:38:39;;;;;;;4.83;1.40;;;18.30;64.70;;;;;;5035133;28;20199;-66
2022/10/04 09:41:21;;;;;;;3.03;1.27;;;18.30;65.10;;;;;;5035232;28;20673;-67
2022/10/04 09:44:20;;;;;;;3.63;1.50;;;18.30;65.00;;;;;;5051078;28;20219;-67
2022/10/04 09:47:06;;;;;;;6.07;1.43;;;18.30;65.20;;;;;;5049525;28;20232;-68
2022/10/04 09:49:52;;;;;;;3.70;1.30;;;18.30;65.60;;;;;;5049820;28;20183;-68
2022/10/04 09:52:56;;;;;;;3.00;1.40;;;18.30;65.60;;;;;;5050423;28;20261;-67
2022/10/04 09:55:29;;;;;;;3.87;1.43;;;18.30;65.70;;;;;;5043354;28;20677;-69
2022/10/04 09:58:15;;;;;;;3.37;1.50;;;18.30;65.50;;;;;;5042724;28;20215;-66
2022/10/04 10:00:59;;;;;;;6.80;1.70;;;18.30;65.70;;;;;;5043625;28;20542;-66
2022/10/04 10:03:46;;;;;;;6.43;2.13;;;18.20;65.80;;;;;;5051629;28;20167;-67
2022/10/04 10:06:39;;;;;;;7.67;1.80;;;18.30;66.00;;;;;;5050994;28;20332;-67
2022/10/04 10:15:24;;;;;;;5.73;2.10;;;18.30;65.80;;;;;;5047559;28;20245;-66
2022/10/04 10:17:57;;;;;;;4.10;1.70;;;18.30;65.70;;;;;;5051222;28;20574;-67
2022/10/04 10:20:43;;;;;;;4.87;1.93;;;18.30;65.60;;;;;;5045493;28;20211;-67
2022/10/04 10:23:33;;;;;;;4.50;2.70;;;18.30;65.80;;;;;;5047017;28;20600;-67
2022/10/04 10:26:09;;;;;;;6.10;1.90;;;18.30;65.90;;;;;;5043382;28;20537;-66
2022/10/04 10:28:56;;;;;;;4.87;1.57;;;18.20;66.20;;;;;;5048174;28;20207;-67
2022/10/04 10:32:00;;;;;;;4.63;1.70;;;18.20;67.00;;;;;;5049234;28;20214;-67
2022/10/04 10:35:04;;;;;;;4.07;1.60;;;18.20;67.60;;;;;;5057947;28;20179;-67
2022/10/04 10:37:47;;;;;;;4.47;1.87;;;18.20;68.20;;;;;;5051821;28;20713;-66
2022/10/04 10:40:39;;;;;;;7.03;2.40;;;18.20;68.30;;;;;;5042630;28;20618;-66
2022/10/04 10:43:17;;;;;;;7.03;2.40;;;18.20;68.60;;;;;;5044138;28;20237;-66
2022/10/04 10:46:17;;;;;;;3.70;1.60;;;18.20;68.90;;;;;;5051216;28;20187;-67
2022/10/04 10:49:19;;;;;;;3.13;1.87;;;18.20;69.30;;;;;;5051324;28;20240;-67
2022/10/04 10:51:48;;;;;;;5.43;1.97;;;18.20;69.80;;;;;;5051495;28;20681;-67
2022/10/04 10:54:29;;;;;;;3.53;1.90;;;18.20;70.00;;;;;;5051700;28;20175;-67
2022/10/04 10:57:32;;;;;;;4.83;1.97;;;18.20;70.30;;;;;;5051546;28;20284;-68
2022/10/04 11:00:21;;;;;;;5.73;1.93;;;18.20;70.40;;;;;;5029856;28;20196;-69
2022/10/04 11:03:11;;;;;;;4.07;1.83;;;18.10;70.60;;;;;;5038770;28;20279;-67
2022/10/04 11:05:58;;;;;;;4.23;2.00;;;18.10;71.10;;;;;;5048938;28;20195;-68
2022/10/04 11:08:52;;;;;;;8.77;2.90;;;18.10;71.10;;;;;;5050730;28;20546;-67
2022/10/04 11:12:04;;;;;;;12.73;4.00;;;18.10;71.70;;;;;;5051828;28;20215;-67
2022/10/04 11:14:48;;;;;;;14.73;7.37;;;18.10;72.10;;;;;;5051864;28;20175;-67
2022/10/04 11:17:55;;;;;;;11.47;4.00;;;18.10;72.50;;;;;;5051111;28;20524;-67
2022/10/04 11:20:51;;;;;;;14.90;3.03;;;18.10;72.70;;;;;;5051664;28;20578;-68
2022/10/04 11:23:52;;;;;;;6.63;2.33;;;18.20;72.90;;;;;;5051591;28;20191;-68
2022/10/04 11:26:49;;;;;;;8.77;3.53;;;18.10;73.10;;;;;;5040516;28;20194;-68
2022/10/04 11:29:54;;;;;;;7.07;2.30;;;18.10;73.30;;;;;;5051847;28;20253;-68
2022/10/04 11:32:44;;;;;;;6.33;2.00;;;18.00;73.60;;;;;;5051770;28;20216;-67
2022/10/04 11:35:29;;;;;;;2.43;1.70;;;18.00;73.60;;;;;;5048915;28;20188;-68
2022/10/04 11:38:34;;;;;;;9.60;1.53;;;18.00;73.70;;;;;;5052026;28;20219;-68
2022/10/04 11:41:17;;;;;;;6.20;2.10;;;17.90;73.30;;;;;;5055084;28;20175;-68
2022/10/04 11:44:03;;;;;;;7.90;1.70;;;18.00;73.50;;;;;;5050697;28;20227;-68
2022/10/04 11:46:44;;;;;;;7.43;1.73;;;18.00;73.30;;;;;;5042640;28;20179;-68
2022/10/04 11:49:23;;;;;;;4.00;2.00;;;17.90;72.80;;;;;;5054947;28;20263;-68
2022/10/04 11:52:03;;;;;;;4.60;1.60;;;17.90;73.00;;;;;;5055066;28;20214;-68
2022/10/04 11:54:46;;;;;;;8.17;2.00;;;17.90;72.40;;;;;;5054651;28;20180;-68
2022/10/04 11:57:38;;;;;;;3.30;1.57;;;17.80;72.30;;;;;;5054359;28;20175;-67
2022/10/04 12:00:17;;;;;;;6.33;1.60;;;17.80;71.80;;;;;;5055138;28;20624;-68
2022/10/04 12:02:56;;;;;;;4.20;1.53;;;17.80;71.20;;;;;;5054817;28;20533;-67
2022/10/04 12:06:08;;;;;;;2.60;1.20;;;17.90;71.20;;;;;;5052929;28;20222;-69
2022/10/04 12:08:51;;;;;;;6.13;1.80;;;17.90;71.10;;;;;;5047987;28;20672;-67
2022/10/04 12:14:34;;;;;;;4.40;1.40;;;17.90;70.50;;;;;;5046493;28;20241;-65
2022/10/04 12:17:07;;;;;;;4.60;1.93;;;17.90;70.60;;;;;;5054825;28;20175;-65
2022/10/04 12:19:52;;;;;;;5.70;1.77;;;17.90;70.50;;;;;;5053215;28;20187;-67
2022/10/04 12:22:34;;;;;;;3.10;1.47;;;17.90;70.40;;;;;;5054606;28;20585;-67
2022/10/04 12:25:14;;;;;;;3.20;1.20;;;17.90;70.40;;;;;;5050307;28;20214;-67
2022/10/04 12:28:10;;;;;;;3.43;1.40;;;17.90;70.30;;;;;;5049411;28;20179;-67
2022/10/04 12:30:58;;;;;;;4.10;1.40;;;17.90;70.20;;;;;;5044569;28;20191;-66
2022/10/04 12:33:54;;;;;;;3.43;1.20;;;17.90;70.10;;;;;;5053611;28;20188;-67
2022/10/04 12:36:32;;;;;;;3.70;1.50;;;17.90;70.20;;;;;;5048150;28;20543;-67
2022/10/04 12:39:21;;;;;;;3.23;1.30;;;17.90;70.40;;;;;;5037894;28;20200;-67
2022/10/04 12:42:23;;;;;;;2.10;1.17;;;17.90;70.40;;;;;;5039812;28;20622;-66
2022/10/04 12:45:27;;;;;;;2.53;1.00;;;17.90;70.30;;;;;;5052963;28;20272;-67
2022/10/04 12:48:05;;;;;;;2.53;1.20;;;17.90;70.30;;;;;;5052773;28;20211;-67
2022/10/04 12:51:00;;;;;;;3.03;1.23;;;17.80;69.80;;;;;;5043586;28;20253;-66
2022/10/04 12:53:43;;;;;;;4.87;1.33;;;17.90;69.90;;;;;;5053088;28;20540;-67
2022/10/04 12:56:36;;;;;;;4.60;1.47;;;17.90;69.80;;;;;;5054125;28;20182;-67
2022/10/04 12:59:28;;;;;;;1.63;1.10;;;17.80;70.00;;;;;;5053536;28;20290;-67
2022/10/04 13:02:31;;;;;;;2.83;1.10;;;17.90;69.80;;;;;;5053918;28;20784;-67
2022/10/04 13:05:02;;;;;;;5.77;1.10;;;17.80;69.50;;;;;;5043417;28;20592;-66
2022/10/04 13:07:39;;;;;;;2.67;1.00;;;17.80;69.30;;;;;;5050219;28;20653;-66
2022/10/04 13:10:38;;;;;;;1.93;1.10;;;17.80;69.50;;;;;;5043273;28;20188;-67
2022/10/04 13:13:43;;;;;;;6.17;1.23;;;17.80;69.80;;;;;;5053058;28;20195;-67
2022/10/04 13:16:44;;;;;;;3.67;1.10;;;17.80;69.60;;;;;;5040780;28;20261;-66
2022/10/04 13:19:29;;;;;;;4.53;1.37;;;17.80;69.90;;;;;;5053734;28;20563;-67
2022/10/04 13:22:24;;;;;;;2.50;1.00;;;17.80;70.20;;;;;;5053788;28;20263;-67
2022/10/04 13:25:15;;;;;;;3.30;1.00;;;17.80;70.10;;;;;;5041373;28;20297;-67
2022/10/04 13:27:57;;;;;;;3.13;1.30;;;17.80;70.00;;;;;;5050735;28;20183;-66
2022/10/04 13:30:36;;;;;;;2.03;1.10;;;17.80;70.20;;;;;;5053510;28;20740;-68
2022/10/04 13:33:31;;;;;;;2.57;1.27;;;17.80;70.30;;;;;;5053195;28;20179;-67
2022/10/04 13:36:17;;;;;;;2.53;1.20;;;17.80;70.80;;;;;;5051410;28;20643;-68
2022/10/04 13:39:06;;;;;;;3.03;1.20;;;17.80;70.80;;;;;;5054897;28;20191;-67
2022/10/04 13:41:51;;;;;;;2.83;1.30;;;17.80;70.80;;;;;;5053065;28;20183;-67
2022/10/04 13:44:27;;;;;;;2.60;1.23;;;17.70;70.90;;;;;;5053037;28;20168;-67
2022/10/04 13:47:16;;;;;;;7.77;1.93;;;17.80;71.20;;;;;;5039253;28;20180;-66
2022/10/04 13:50:16;;;;;;;4.23;1.20;;;17.80;71.20;;;;;;5034298;28;20194;-67
2022/10/04 13:58:57;;;;;;;5.73;1.20;;;17.70;72.60;;;;;;5051221;28;20237;-67
2022/10/04 14:01:53;;;;;;;4.63;1.30;;;17.70;73.00;;;;;;5052862;28;20513;-67
2022/10/04 14:04:35;;;;;;;4.73;1.10;;;17.70;73.00;;;;;;5040979;28;20731;-67
2022/10/04 14:07:23;;;;;;;4.73;1.20;;;17.70;73.20;;;;;;5052748;28;20187;-67
2022/10/04 14:10:08;;;;;;;1.93;1.27;;;17.70;72.50;;;;;;5052749;28;20195;-66
2022/10/04 14:12:58;;;;;;;2.37;1.07;;;17.70;72.20;;;;;;5052106;28;20290;-66
2022/10/04 14:15:37;;;;;;;8.37;1.20;;;17.70;71.60;;;;;;5052756;28;20262;-66
2022/10/04 14:18:27;;;;;;;2.07;1.10;;;17.70;71.60;;;;;;5052801;28;20183;-66
2022/10/04 14:21:13;;;;;;;1.50;1.00;;;17.70;71.60;;;;;;5052555;28;20749;-67
2022/10/04 14:24:39;;;;;;;2.40;1.10;;;17.80;71.80;;;;;;5052589;28;20232;-67
2022/10/04 14:27:45;;;;;;;7.03;1.40;;;17.80;71.40;;;;;;5052479;28;20684;-66
2022/10/04 14:30:23;;;;;;;4.13;1.23;;;17.70;71.10;;;;;;5047982;28;20187;-66